x

9449880 - Friday Harbor, Wa (frdw1) Weather Station

7:36am - Thu 17th Jan 2019 All times are PST. -8 hours from GMT.

  • Wind
    2mph, 5mph gusts
  • Sea Temp 47°f
  • Air Temp 46°f
  • Sea Pressure 998mb
  • 9449880 - Friday Harbor, Wa
  • 9449880 - Friday Harbor, Wa

More Historic Weather Station data

Upgrade to MSW Pro to gain access to the past 30 days of data for over 8000 Wavebouys and Weather Stations around the globe.

Join

Comparision Forecast

View Surf forecast
   
Thu 01/17 7:36am 2 5 mph 998mb 47f 46f
7:30am 2 3 mph 998mb 47f 44f
7:24am 2 7 mph 997.9mb 47f 44f
7:18am 1 3 mph 997.9mb 47f 44f
7:12am 2 3 mph 998.1mb 47f 45f
7:06am  -  2 mph 998.1mb 47f 45f
7:00am 1 5 mph 998.1mb 47f 46f
6:36am 3 10 mph 998mb 47f 46f
6:30am 6 10 mph 998.1mb 47f 47f
6:24am 5 8 mph 998.2mb 47f 46f
6:18am 3 6 mph 998.2mb 47f 45f
6:12am 2 3 mph 998.3mb 47f 45f
6:06am  -  3 mph 998.3mb 47f 45f
6:00am  -  3 mph 998.4mb 47f 45f
5:36am  -  1 mph 998.2mb 47f 45f
5:30am  -  1 mph 998.3mb 47f 44f
5:24am  -  2 mph 998.3mb 47f 45f
5:18am 2 3 mph 998.3mb 47f 44f
5:12am 2 5 mph 998.2mb 47f 44f
5:06am 3 5 mph 998.2mb 47f 45f
5:00am 2 5 mph 998.1mb 47f 45f
4:36am 1 3 mph 998.3mb 47f 44f
4:30am 2 3 mph 998.4mb 47f 44f
4:24am 2 3 mph 998.5mb 47f 45f
4:18am 1 2 mph 998.6mb 47f 45f
4:12am 1 3 mph 998.7mb 47f 45f
4:06am 1 5 mph 998.6mb 47f 45f
4:00am 2 6 mph 998.6mb 47f 46f
3:36am 9 10 mph 998.5mb 47f 46f
3:30am 9 11 mph 998.7mb 47f 47f
3:24am 7 9 mph 998.8mb 47f 47f
3:18am 7 8 mph 998.8mb 47f 47f
3:12am 6 7 mph 998.7mb 47f 47f
3:06am 7 8 mph 998.7mb 47f 47f
3:00am 8 9 mph 998.7mb 47f 48f
2:36am 8 9 mph 998.6mb 47f 49f
2:30am 7 9 mph 998.6mb 47f 49f
2:24am 7 9 mph 998.5mb 47f 49f
2:18am 8 10 mph 998.5mb 47f 50f
2:12am 9 10 mph 998.4mb 47f 50f
2:06am 9 11 mph 998.4mb 47f 50f
2:00am 7 8 mph 998.5mb 47f 49f
1:36am 7 9 mph 998.7mb 47f 49f
1:30am 7 9 mph 998.8mb 47f 49f
1:24am 6 7 mph 999mb 47f 49f
1:18am 5 6 mph 999.1mb 47f 49f
1:12am 5 6 mph 999.1mb 47f 48f
1:06am 2 5 mph 999.2mb 47f 48f
1:00am 3 6 mph 999.2mb 47f 48f
12:36am 7 8 mph - - 48f
12:30am 6 8 mph 999.7mb 47f 48f
12:24am 6 8 mph 999.8mb 47f 47f
12:18am 3 6 mph 999.9mb 47f 46f
12:12am  -  2 mph 1000.1mb 47f 43f
12:06am  -  mph 1000.2mb 47f -
12:00am 3 5 mph 1000.3mb 47f 46f
Wed 01/16 11:36pm  -  1 mph 1000.5mb 47f 44f
11:30pm  -  2 mph 1000.6mb 47f 41f
11:24pm 3 6 mph 1000.7mb 47f 40f
11:18pm 2 5 mph 1000.7mb 47f 42f
11:12pm  -  0 mph 1000.7mb 47f 42f
11:06pm  -  1 mph 1000.7mb 47f 42f
11:00pm  -  1 mph 1000.8mb 47f 41f
10:36pm 3 5 mph 1000.8mb 47f 41f
10:30pm  -  2 mph 1000.8mb 47f 42f
10:24pm 3 5 mph 1000.8mb 47f 42f
10:18pm 2 2 mph 1000.8mb 47f 42f
10:12pm  -  3 mph 1000.9mb 47f 42f
10:06pm  -  2 mph 1001mb 47f 42f
10:00pm 3 5 mph 1001mb 47f 43f
9:36pm  -  2 mph 1001.2mb 47f 43f
9:30pm 1 5 mph 1001.2mb 47f 44f
9:24pm  -  2 mph 1001.2mb 47f 43f
9:18pm 3 3 mph 1001.3mb 47f 42f
9:12pm 3 6 mph 1001.4mb 47f 46f
9:06pm 1 2 mph 1001.4mb 47f 42f
9:00pm  -  3 mph 1001.5mb 47f 42f
8:36pm  -  3 mph 1001.6mb 47f 42f
8:30pm 2 3 mph 1001.8mb 47f 42f
8:24pm  -  1 mph 1001.8mb 47f 42f
8:18pm  -  2 mph 1002.1mb 47f 43f
8:12pm  -  1 mph 1002.3mb 47f 42f
8:06pm  -  2 mph 1002.3mb 47f 42f
8:00pm  -  2 mph 1002.4mb 47f 42f
7:36pm 5 5 mph 1002.6mb 47f 42f
7:30pm 3 5 mph 1002.6mb 47f 42f
7:24pm  -  5 mph 1002.6mb 47f 44f
7:18pm 1 3 mph 1002.7mb 47f 44f
7:12pm 2 6 mph - - 43f
7:06pm 3 5 mph 1003.1mb 47f 43f
7:00pm  -  2 mph 1003mb 47f 45f
6:36pm 1 7 mph 1003.6mb 47f 45f
6:30pm 1 5 mph 1003.7mb 47f 44f
6:24pm 2 3 mph 1004mb 47f 43f
6:18pm 1 1 mph 1004mb 47f 44f
6:12pm  -  2 mph 1003.9mb 47f 44f
6:06pm 1 2 mph 1004mb 47f 44f
6:00pm 1 3 mph 1004mb 47f 45f
5:36pm  -  2 mph 1004.2mb 47f 45f
5:30pm  -  3 mph 1004.2mb 47f 46f
5:24pm  -  2 mph 1004.3mb 47f 45f
5:18pm  -  1 mph 1004.3mb 47f 46f
5:12pm 2 2 mph 1004.5mb 47f 46f
5:06pm 1 5 mph 1004.6mb 47f 46f
5:00pm 1 3 mph 1004.6mb 47f 46f
4:36pm 1 1 mph 1005.1mb 47f 46f
4:30pm  -  1 mph 1005.1mb 47f 46f
4:24pm  -  3 mph 1005.2mb 47f 46f
4:18pm 2 2 mph 1005.3mb 47f 46f
4:12pm  -  1 mph 1005.5mb 47f 47f
4:06pm  -  1 mph 1005.5mb 47f 47f
4:00pm  -  1 mph 1005.5mb 47f 47f
3:36pm 2 3 mph 1005.6mb 47f 48f
3:30pm 3 7 mph 1005.7mb 47f 49f
3:24pm 3 9 mph 1005.8mb 47f 49f
3:18pm 5 8 mph 1005.8mb 47f 49f
3:12pm 5 6 mph - - 49f
3:06pm 3 6 mph 1006.1mb 47f 49f
3:00pm 3 7 mph 1006.1mb 47f 49f
2:36pm 7 9 mph 1006.2mb 47f 48f
2:30pm 6 7 mph 1006.3mb 47f 49f
2:24pm 3 6 mph 1006.4mb 47f 49f
2:18pm 5 9 mph 1006.4mb 47f 49f
2:12pm 5 7 mph 1006.3mb 47f 49f
2:06pm 6 9 mph 1006.4mb 47f 49f
2:00pm 6 8 mph 1006.6mb 47f 49f
1:36pm 6 7 mph 1007mb 47f 48f
1:30pm 5 7 mph 1007mb 47f 48f
1:24pm 3 7 mph 1007.1mb 47f 48f
1:18pm 6 8 mph 1007.1mb 47f 48f
1:12pm 3 11 mph 1007.1mb 47f 48f
1:06pm 6 7 mph 1007.1mb 47f 48f
1:00pm 2 7 mph 1007.3mb 47f 48f
12:36pm 6 9 mph 1007.5mb 47f 47f
12:30pm 5 8 mph 1007.6mb 47f 47f
12:24pm 7 10 mph 1007.7mb 47f 47f
12:18pm 6 7 mph 1007.8mb 47f 46f
12:12pm 5 7 mph 1008mb 47f 46f
12:06pm 2 6 mph 1008.2mb 47f 46f
12:00pm 2 6 mph 1008.1mb 47f 46f
11:36am 3 8 mph 1008.3mb 47f 45f
11:30am 3 7 mph 1008.4mb 47f 45f
11:24am 6 8 mph 1008.5mb 47f 45f
11:18am 5 6 mph 1008.6mb 47f 45f
11:12am 5 7 mph 1008.7mb 47f 44f
11:06am 3 5 mph 1008.8mb 47f 44f
11:00am 1 2 mph 1009mb 47f 44f
10:36am  -  2 mph 1009.2mb 47f 43f
10:30am  -  5 mph 1009.1mb 47f 43f
10:24am 2 6 mph 1009.1mb 47f 43f
10:18am 2 6 mph 1009mb 47f 42f
10:12am 3 8 mph 1009mb 47f 42f
10:06am 3 6 mph 1009.1mb 47f 42f
10:00am 3 6 mph 1009mb 47f 42f
9:36am 2 3 mph 1008.9mb 47f 42f
9:30am  -  3 mph 1008.9mb 47f 42f
9:24am 1 3 mph 1008.9mb 47f 42f
9:18am  -  3 mph 1008.8mb 47f 42f
9:12am 1 3 mph 1008.8mb 47f 41f
9:06am  -  3 mph 1008.8mb 47f 42f
9:00am  -  2 mph 1008.8mb 47f 41f
8:36am  -  1 mph 1008.7mb 47f 41f
8:30am  -  5 mph 1008.5mb 47f 40f
8:24am 1 6 mph 1008.5mb 47f 40f
8:18am 2 5 mph 1008.3mb 47f 40f
8:12am  -  2 mph 1008.3mb 47f 40f
8:06am 1 2 mph 1008.3mb 47f 40f
8:00am  -  1 mph 1008.3mb 47f 40f
7:36am 1 5 mph 1007.9mb 47f 39f
7:30am  -  3 mph 1007.9mb 47f 39f
7:24am 2 5 mph 1007.9mb 47f 39f
7:18am  -  5 mph 1007.9mb 47f 39f
7:12am  -  2 mph 1008mb 47f 39f
7:06am  -  3 mph 1007.9mb 47f 39f
7:00am 1 5 mph 1007.9mb 47f 39f
6:36am 1 7 mph 1007.9mb 47f 39f
6:30am 1 5 mph 1007.9mb 47f 39f
6:24am  -  2 mph 1008mb 47f 38f
6:18am 2 2 mph 1008mb 47f 38f
6:12am  -  1 mph 1008mb 47f 38f
6:06am  -  3 mph 1008mb 47f 38f
6:00am  -  1 mph 1008mb 47f 38f
5:36am  -  2 mph 1008.1mb 47f 38f
5:30am 1 3 mph 1008.1mb 47f 38f
5:24am 2 3 mph 1008.1mb 47f 38f
5:18am 1 2 mph 1008.1mb 47f 38f
5:12am  -  3 mph 1008.1mb 47f 38f
5:06am 2 3 mph 1008mb 47f 38f
5:00am  -  2 mph 1007.9mb 47f 39f
4:36am  -  2 mph 1008mb 47f 38f
4:30am  -  2 mph 1008mb 47f 38f
4:24am 2 3 mph 1008mb 47f 38f
4:18am 2 3 mph 1008.1mb 47f 38f
4:12am 1 5 mph 1008mb 47f 39f
4:06am  -  2 mph 1008.2mb 47f 39f
4:00am 1 7 mph 1008.3mb 47f 40f
3:36am  -  1 mph 1008.4mb 47f 38f
3:30am  -  1 mph 1008.5mb 47f 38f
3:24am 2 2 mph 1008.5mb 47f 38f
3:18am  -  1 mph 1008.4mb 47f 39f
3:12am  -  1 mph 1008.4mb 47f 38f
3:06am  -  2 mph 1008.4mb 47f 38f
3:00am 1 2 mph 1008.5mb 47f 38f
2:36am 3 3 mph 1008.4mb 47f 38f
2:30am 3 3 mph 1008.5mb 47f 38f
2:24am  -  1 mph 1008.5mb 47f 38f
2:18am  -  2 mph 1008.5mb 47f 38f
2:12am 3 3 mph 1008.5mb 47f 39f
2:06am  -  1 mph 1008.4mb 47f 39f
2:00am  -  2 mph 1008.4mb 47f 39f
1:36am 2 3 mph 1008.5mb 47f 39f
1:30am  -  1 mph 1008.5mb 47f 40f
1:24am  -  1 mph 1008.5mb 47f 40f
1:18am  -  0 mph 1008.5mb 47f 40f
1:12am  -  1 mph 1008.5mb 47f 40f
1:06am  -  1 mph 1008.5mb 47f 40f
1:00am  -  2 mph 1008.5mb 47f 40f
12:36am  -  3 mph - - 41f
12:30am  -  1 mph 1008.4mb 47f 41f
12:24am  -  1 mph 1008.5mb 47f 41f
12:18am  -  2 mph 1008.5mb 47f 41f
12:12am  -  1 mph 1008.5mb 47f 40f
12:06am  -  0 mph 1008.5mb 47f 40f
12:00am  -  2 mph 1008.6mb 47f 40f
Tue 01/15 11:36pm 1 3 mph 1008.6mb 47f 42f
11:30pm 2 3 mph 1008.7mb 47f 41f
11:24pm  -  1 mph 1008.7mb 47f 41f
11:18pm  -  2 mph 1008.8mb 47f 41f
11:12pm 1 2 mph 1008.8mb 47f 42f
11:06pm 1 2 mph 1008.8mb 47f 42f
11:00pm  -  2 mph 1008.8mb 47f 42f
10:36pm  -  2 mph 1008.7mb 47f 42f
10:30pm  -  2 mph 1008.7mb 47f 42f
10:24pm 1 3 mph 1008.6mb 47f 42f
10:18pm 1 5 mph 1008.6mb 47f 42f
10:12pm 1 3 mph 1008.5mb 47f 42f
10:06pm 1 5 mph 1008.5mb 47f 42f
10:00pm 2 8 mph 1008.5mb 47f 42f
9:36pm 1 5 mph 1008.3mb 47f 42f
9:30pm 2 6 mph 1008.3mb 47f 42f
9:24pm 2 8 mph 1008.2mb 47f 42f
9:18pm 3 8 mph 1008.2mb 47f 42f
9:12pm 1 6 mph 1008.2mb 47f 42f
9:06pm 3 8 mph 1008.3mb 47f 42f
9:00pm 1 5 mph 1008.4mb 47f 42f
8:36pm 2 7 mph 1008.4mb 47f 42f
8:30pm  -  5 mph 1008.4mb 47f 42f
8:24pm 1 5 mph 1008.4mb 47f 42f
8:18pm  -  2 mph 1008.4mb 47f 42f
8:12pm  -  1 mph 1008.5mb 47f 42f
8:06pm 1 2 mph 1008.5mb 47f 42f
8:00pm  -  2 mph 1008.6mb 47f 42f
7:36pm 1 6 mph 1008.6mb 47f 42f
7:30pm 1 2 mph 1008.6mb 47f 41f
7:24pm  -  2 mph 1008.7mb 47f 41f
7:18pm 1 2 mph 1008.7mb 47f 41f
7:12pm  -  2 mph 1008.7mb 47f 41f
7:06pm  -  2 mph 1008.7mb 47f 41f
7:00pm  -  2 mph 1008.7mb 47f 41f
6:36pm  -  2 mph 1008.9mb 47f 41f
6:30pm  -  1 mph 1008.9mb 47f 41f
6:24pm 1 3 mph 1008.9mb 47f 41f
6:18pm  -  2 mph 1008.9mb 47f 41f
6:12pm  -  2 mph 1008.9mb 47f 41f
6:06pm  -  2 mph 1009mb 47f 41f
6:00pm  -  2 mph 1009mb 47f 42f
5:36pm  -  3 mph 1009mb 47f 41f
5:30pm  -  1 mph 1009.1mb 47f 41f
5:24pm 1 2 mph 1009.1mb 47f 41f
5:18pm 2 3 mph 1009.1mb 47f 41f
5:12pm 1 2 mph 1009.1mb 47f 41f
5:06pm 1 3 mph 1009.1mb 47f 42f
5:00pm  -  2 mph 1009.2mb 47f 42f
4:36pm 2 3 mph 1009.4mb 47f 42f
4:30pm  -  1 mph 1009.5mb 47f 42f
4:24pm 1 2 mph 1009.5mb 47f 42f
4:18pm 1 3 mph 1009.6mb 47f 42f
4:12pm 1 3 mph 1009.6mb 47f 42f
4:06pm  -  1 mph 1009.7mb 47f 43f
4:00pm 1 2 mph 1009.6mb 47f 43f
3:36pm 1 5 mph 1009.9mb 47f 43f
3:30pm 1 2 mph 1009.9mb 47f 43f
3:24pm  -  2 mph 1009.8mb 47f 43f
3:18pm  -  3 mph 1009.7mb 47f 44f
3:12pm 1 3 mph 1009.8mb 47f 44f
3:06pm  -  3 mph 1009.9mb 47f 44f
3:00pm  -  2 mph 1009.9mb 47f 44f
2:36pm  -  2 mph 1009.9mb 47f 44f
2:30pm 1 6 mph 1009.9mb 47f 44f
2:24pm  -  5 mph 1010mb 47f 44f
2:18pm 1 2 mph 1010mb 47f 44f
2:12pm  -  2 mph 1010mb 47f 45f
2:06pm  -  3 mph 1010mb 47f 45f
2:00pm 1 3 mph 1010mb 47f 45f
1:36pm 1 3 mph 1010.1mb 47f 46f
1:30pm  -  2 mph 1010.1mb 47f 46f
1:24pm  -  3 mph 1010.2mb 47f 46f
1:18pm 1 5 mph 1010.3mb 47f 45f
1:12pm 2 5 mph 1010.3mb 47f 45f
1:06pm 1 3 mph 1010.4mb 47f 45f
1:00pm  -  5 mph 1010.5mb 47f 45f
12:36pm 1 5 mph 1010.9mb 48f 46f
12:30pm  -  3 mph 1011mb 48f 46f
12:24pm 2 5 mph 1011mb 48f 45f
12:18pm 3 7 mph 1011.1mb 48f 46f
12:12pm 1 6 mph 1011.1mb 48f 46f
12:06pm 1 5 mph 1011.2mb 48f 46f
12:00pm 2 7 mph 1011.3mb 48f 45f
11:36am 1 3 mph 1011.8mb 48f 46f
11:30am 1 3 mph 1011.9mb 48f 47f
11:24am 2 6 mph 1011.9mb 48f 46f
11:18am 2 5 mph 1011.9mb 48f 47f
11:12am 1 6 mph 1012mb 48f 47f
11:06am  -  3 mph 1012mb 48f 48f
11:00am 2 6 mph 1012.1mb 48f 46f
10:36am  -  5 mph 1012.2mb 48f 47f
10:30am 3 5 mph 1012.3mb 48f 46f
10:24am 1 2 mph 1012.4mb 48f 46f
10:18am  -  1 mph 1012.4mb 48f 46f
10:12am  -  3 mph 1012.3mb 48f 44f
10:06am 2 3 mph 1012.3mb 47f 43f
10:00am  -  1 mph 1012.2mb 47f 45f
9:36am 2 3 mph 1012.2mb 47f 41f
9:30am 1 2 mph 1012.2mb 47f 42f
9:24am  -  2 mph 1012.2mb 47f 42f
9:18am 1 2 mph 1012.2mb 47f 41f
9:12am 2 2 mph 1012.2mb 47f 40f
9:06am 1 3 mph 1012.2mb 47f 41f
9:00am 1 3 mph 1012.2mb 47f 40f
8:36am  -  2 mph 1012.1mb 47f 41f
8:30am  -  1 mph 1012.1mb 47f 40f
8:24am  -  2 mph 1012mb 47f 39f
8:18am 1 2 mph 1011.9mb 47f 39f
8:12am 1 2 mph 1011.9mb 47f 39f
8:06am 1 2 mph 1011.9mb 47f 37f
8:00am 1 2 mph 1011.8mb 47f 37f
7:36am 1 2 mph 1011.8mb 47f 38f
7:30am  -  1 mph 1011.8mb 47f 38f
7:24am  -  3 mph 1011.9mb 47f 37f
7:18am  -  2 mph 1011.9mb 47f 38f
7:12am 1 2 mph 1011.8mb 47f 38f
7:06am 2 6 mph 1011.8mb 47f 37f
7:00am 5 5 mph 1011.9mb 47f 37f
6:36am 1 5 mph 1012mb 47f 38f
6:30am 3 6 mph 1011.9mb 47f 37f
6:24am 1 3 mph 1011.8mb 47f 38f
6:18am 3 5 mph 1011.8mb 47f 38f
6:12am 1 1 mph 1011.9mb 47f 37f
6:06am  -  2 mph 1011.8mb - 37f
6:00am  -  3 mph 1011.8mb 47f 37f
5:36am 1 2 mph 1011.7mb 47f 38f
5:30am 1 2 mph 1011.8mb 47f 37f
5:24am  -  3 mph 1011.9mb 47f 38f
5:18am 2 5 mph 1011.9mb 47f 38f
5:12am  -  2 mph 1011.9mb 47f 38f
5:06am 1 2 mph 1011.9mb 48f 38f
5:00am  -  1 mph 1011.9mb 48f 39f
4:36am  -  3 mph 1012.1mb 48f 37f
4:30am  -  2 mph 1012.1mb 48f 37f
4:24am 2 5 mph 1012.1mb 48f 37f
4:18am 1 2 mph 1012.1mb 48f 38f
4:12am  -  2 mph 1012.1mb 48f 38f
4:06am 3 6 mph 1012.1mb 48f 38f
4:00am  -  5 mph 1012.2mb 48f 38f
3:36am  -  2 mph 1012.4mb 48f 38f
3:30am 2 3 mph 1012.4mb 48f 38f
3:24am 2 5 mph 1012.5mb 48f 37f
3:18am 3 5 mph 1012.6mb 48f 38f
3:12am 2 3 mph 1012.6mb 48f 38f
3:06am 2 2 mph 1012.5mb 48f 39f
3:00am  -  1 mph 1012.6mb 48f 39f
2:36am 2 2 mph 1012.9mb 48f 38f
2:30am 1 2 mph 1012.9mb 48f 37f
2:24am 1 2 mph 1013mb 48f 37f
2:18am  -  1 mph 1012.9mb 48f 38f
2:12am  -  2 mph 1012.8mb 48f 38f
2:06am  -  2 mph 1012.7mb 48f 38f
2:00am 2 5 mph 1012.6mb 48f 38f
1:36am 2 5 mph 1012.8mb 48f 38f
1:30am 1 5 mph 1012.8mb 48f 38f
1:24am 3 7 mph 1013mb 48f 39f
1:18am  -  2 mph 1013mb 48f 38f
1:12am  -  2 mph 1013.1mb 48f 38f
1:06am  -  2 mph 1013mb 48f 38f
1:00am 1 3 mph 1013mb 48f 38f
12:36am 2 2 mph 1013.4mb 48f 38f
12:30am  -  2 mph 1013.4mb 48f 38f
12:24am  -  2 mph 1013.4mb 48f 38f
12:18am 1 2 mph 1013.4mb 48f 38f
12:12am 2 3 mph 1013.4mb 48f 38f
12:06am 1 3 mph 1013.4mb 48f 38f
12:00am  -  3 mph 1013.5mb 48f 39f
Mon 01/14 11:36pm 2 5 mph 1013.6mb 48f 38f
11:30pm 1 2 mph 1013.7mb 48f 38f
11:24pm 1 5 mph 1013.7mb 48f 38f
11:18pm  -  3 mph 1013.8mb 48f 38f
11:12pm  -  3 mph 1013.9mb 48f 39f
11:06pm 1 2 mph 1013.9mb 48f 39f
11:00pm  -  1 mph 1014mb 47f 39f
10:36pm  -  2 mph 1014.1mb 47f 39f
10:30pm 1 6 mph 1014.1mb 47f 40f
10:24pm 5 7 mph 1014.1mb 47f 40f
10:18pm 1 3 mph 1014.1mb 47f 40f
10:12pm  -  2 mph 1014.1mb 47f 40f
10:06pm 1 5 mph 1014.1mb 47f 40f
10:00pm 1 6 mph 1014.1mb 47f 40f
9:36pm 1 6 mph 1014mb 47f 39f
9:30pm  -  6 mph 1014mb 47f 39f
9:24pm  -  1 mph 1014mb 47f 39f
9:18pm  -  2 mph 1014mb 47f 39f
9:12pm  -  1 mph 1014mb 47f 39f
9:06pm  -  1 mph 1014mb 47f 39f
9:00pm 2 2 mph 1014.1mb 47f 39f
8:36pm  -  2 mph 1014mb 47f 39f
8:30pm  -  3 mph 1014mb 47f 39f
8:24pm 2 5 mph 1014mb 47f 39f
8:18pm 2 6 mph 1013.9mb 47f 39f
8:12pm 2 5 mph 1013.9mb 47f 39f
8:06pm 1 5 mph 1014mb 47f 39f
8:00pm 1 6 mph 1014mb 47f 39f
7:36pm 1 5 mph 1014.2mb 47f 40f
7:30pm 1 3 mph 1014.2mb 47f 39f
7:24pm 2 6 mph 1014.3mb 48f 40f
7:18pm 2 3 mph 1014.4mb 48f 40f
7:12pm  -  3 mph 1014.3mb 48f 40f
7:06pm  -  3 mph 1014.4mb 48f 40f
7:00pm 3 5 mph 1014.5mb 48f 40f
6:36pm  -  2 mph 1014.6mb 48f 40f
6:30pm 2 5 mph 1014.5mb 48f 40f
6:24pm  -  5 mph 1014.5mb 48f 40f
6:18pm 2 3 mph 1014.5mb 48f 40f
6:12pm  -  5 mph 1014.5mb 48f 40f
6:06pm 2 5 mph 1014.5mb 48f 40f
6:00pm  -  3 mph 1014.5mb 48f 40f
5:36pm 1 2 mph 1014.7mb 48f 40f
5:30pm 1 7 mph 1014.6mb 48f 40f
5:24pm 3 5 mph 1014.7mb 48f 40f
5:18pm 3 5 mph 1014.8mb 48f 40f
5:12pm  -  1 mph 1014.9mb 48f 40f
5:06pm  -  2 mph 1015mb 48f 41f
5:00pm  -  5 mph 1015mb 48f 41f
4:36pm 3 6 mph 1015mb 48f 42f
4:30pm  -  2 mph 1015.1mb 48f 42f
4:24pm  -  3 mph 1015.2mb 48f 42f
4:18pm 1 3 mph 1015.2mb 48f 42f
4:12pm 2 3 mph 1015.3mb 48f 43f
4:06pm  -  3 mph 1015.3mb 48f 44f
4:00pm  -  3 mph 1015.4mb 48f 44f
3:36pm 3 7 mph 1015.4mb 48f 43f
3:30pm 3 6 mph 1015.4mb 48f 43f
3:24pm 3 6 mph 1015.5mb 48f 43f
3:18pm 3 6 mph 1015.5mb 48f 44f
3:12pm 1 3 mph 1015.5mb 48f 44f
3:06pm 2 6 mph 1015.6mb 48f 44f
3:00pm 2 7 mph - - 44f
2:36pm  -  6 mph 1015.6mb 48f 45f
2:30pm 2 5 mph 1015.7mb 48f 45f
2:24pm 1 5 mph 1015.8mb 48f 46f
2:18pm 2 5 mph 1015.9mb 48f 45f
2:12pm 3 5 mph 1015.8mb 48f 45f
2:06pm 1 5 mph 1015.8mb 48f 46f
2:00pm 1 6 mph 1015.9mb 48f 46f
1:36pm 1 3 mph 1016.1mb 48f 47f
1:30pm  -  5 mph 1016.2mb 48f 47f
1:24pm  -  5 mph 1016.2mb 48f 46f
1:18pm 1 3 mph 1016.3mb 48f 47f
1:12pm 2 6 mph 1016.4mb 48f 46f
1:06pm 1 3 mph 1016.4mb 48f 46f
1:00pm 1 5 mph 1016.5mb 48f 46f
12:36pm 2 5 mph 1016.7mb 48f 46f
12:30pm 2 5 mph 1016.7mb 48f 46f
12:24pm 2 6 mph 1016.7mb 48f 47f
12:18pm 2 6 mph 1016.9mb 48f 47f
12:12pm 1 5 mph 1017mb 48f 47f
12:06pm 2 5 mph 1017mb 48f 47f
12:00pm 2 5 mph 1017.1mb 48f 47f
11:36am 2 6 mph 1017.6mb 48f 46f
11:30am 1 5 mph 1017.6mb 48f 46f
11:24am 2 6 mph 1017.7mb 48f 46f
11:18am 2 6 mph 1017.8mb 48f 46f
11:12am 2 5 mph 1018mb 48f 46f
11:06am 2 6 mph 1018.1mb 48f 46f
11:00am 3 6 mph 1018.3mb 48f 46f
10:36am 2 6 mph 1018.3mb 48f 46f
10:30am 2 5 mph 1018.4mb 48f 46f
10:24am 2 7 mph 1018.5mb 48f 46f
10:18am 2 6 mph 1018.5mb 48f 46f
10:12am 2 6 mph 1018.6mb 48f 46f
10:06am 2 5 mph 1018.6mb 48f 46f
10:00am 3 7 mph 1018.6mb 48f 45f
9:36am 2 6 mph 1018.7mb 48f 45f
9:30am 2 5 mph 1018.7mb 48f 45f
9:24am  -  5 mph 1018.7mb 48f 45f
9:18am 1 6 mph 1018.7mb 48f 44f
9:12am 1 5 mph 1018.8mb 48f 44f
9:06am 2 5 mph 1018.8mb 48f 44f
9:00am  -  5 mph 1018.7mb 48f 44f
8:36am  -  3 mph 1018.7mb 48f 43f
8:30am  -  3 mph 1018.7mb 48f 42f
8:24am 2 3 mph 1018.7mb 48f 42f
8:18am 1 3 mph 1018.6mb 48f 42f
8:12am  -  3 mph 1018.6mb 48f 42f
8:06am 2 3 mph 1018.6mb 48f 41f
8:00am  -  5 mph 1018.7mb 48f 41f
7:36am 1 2 mph 1018.8mb 47f 42f
7:30am  -  3 mph 1018.9mb 47f 42f
7:24am  -  2 mph 1018.9mb 47f 42f
7:18am 1 3 mph 1018.9mb 47f 42f
7:12am  -  3 mph 1019mb 47f 42f
7:06am 1 5 mph 1019mb 47f 42f
7:00am 1 3 mph 1019mb 47f 42f
6:36am 1 7 mph 1019.1mb 47f 43f
6:30am 3 7 mph 1019.2mb 47f 43f
6:24am 2 9 mph 1019.2mb 47f 43f
6:18am 1 6 mph 1019.3mb 47f 43f
6:12am 2 6 mph 1019.3mb 47f 43f
6:06am 3 8 mph 1019.4mb 47f 43f
6:00am 3 6 mph 1019.5mb 47f 43f
5:36am 3 8 mph 1019.5mb 47f 43f
5:30am 2 9 mph 1019.5mb 47f 43f
5:24am 1 6 mph 1019.5mb 47f 44f
5:18am 3 6 mph 1019.5mb 47f 43f
5:12am 1 6 mph 1019.5mb 47f 43f
5:06am 1 3 mph 1019.5mb 47f 43f
5:00am 1 3 mph 1019.6mb 47f 43f
4:36am 3 6 mph 1019.8mb 47f 43f
4:30am  -  3 mph 1019.9mb 47f 43f
4:24am 2 6 mph 1020mb 47f 43f
4:18am 1 3 mph 1020mb 47f 44f
4:12am 2 6 mph 1020mb 48f 44f
4:06am 2 6 mph 1020mb 48f 44f
4:00am 1 7 mph 1020mb 48f 43f
3:36am 2 5 mph 1020.2mb 48f 42f
3:30am 1 3 mph 1020.2mb 48f 42f
3:24am 1 5 mph 1020.2mb 48f 42f
3:18am 2 5 mph 1020.3mb 48f 41f
3:12am 2 3 mph 1020.3mb 48f 41f
3:06am 2 2 mph 1020.4mb 48f 41f
3:00am  -  2 mph 1020.4mb 48f 42f
2:36am  -  2 mph 1020.6mb 48f 41f
2:30am 1 3 mph 1020.6mb 48f 40f
2:24am 1 3 mph 1020.6mb 48f 41f
2:18am 2 3 mph 1020.7mb 48f 41f
2:12am 2 2 mph 1020.8mb 48f 42f
2:06am 2 2 mph 1020.7mb 48f 42f
2:00am 2 2 mph 1020.7mb 48f 42f
1:36am  -  1 mph 1020.6mb 48f 42f
1:30am  -  2 mph 1020.6mb 48f 42f
1:24am  -  3 mph 1020.6mb 48f 42f
1:18am  -  2 mph 1020.6mb 48f 43f
1:12am 1 2 mph 1020.7mb 48f 42f
1:06am  -  2 mph 1020.7mb 48f 42f
1:00am 1 7 mph 1020.7mb 48f 42f
12:36am 1 2 mph 1020.8mb 48f 43f
12:30am  -  3 mph 1020.8mb 48f 43f
12:24am 1 3 mph 1020.8mb 48f 43f
12:18am 1 6 mph 1020.9mb 48f 43f
12:12am  -  3 mph 1020.9mb 48f 43f
12:06am 1 5 mph 1021mb 48f 44f
12:00am  -  3 mph 1021mb 48f 43f
Sun 01/13 11:36pm 1 5 mph 1021.1mb 48f 42f
11:30pm  -  5 mph 1021.2mb 48f 42f
11:24pm 2 3 mph 1021.2mb 48f 41f
11:18pm 3 5 mph 1021.3mb 48f 40f
11:12pm 2 5 mph 1021.3mb 48f 40f
11:06pm 3 6 mph 1021.4mb 48f 40f
11:00pm 3 6 mph 1021.5mb 48f 40f
10:36pm 5 5 mph 1021.4mb 48f 39f
10:30pm 3 5 mph 1021.4mb 48f 40f
10:24pm 1 2 mph 1021.3mb 48f 41f
10:18pm 2 3 mph 1021.3mb 48f 40f
10:12pm 2 3 mph 1021.4mb 48f 40f
10:06pm 2 3 mph 1021.3mb 48f 40f
10:00pm 2 3 mph 1021.3mb 48f 40f
9:36pm  -  1 mph 1021.2mb 48f 42f
9:30pm  -  1 mph 1021.2mb 48f 42f
9:24pm 1 2 mph 1021.2mb 48f 41f
9:18pm 2 3 mph 1021.2mb 48f 41f
9:12pm 2 3 mph 1021.2mb 48f 41f
9:06pm 3 5 mph 1021.1mb 48f 41f
9:00pm 3 5 mph 1021.1mb 48f 41f
8:36pm 1 3 mph 1021mb 48f 42f
8:30pm 3 3 mph 1021mb 48f 42f
8:24pm 1 3 mph 1021mb 48f 43f
8:18pm 1 2 mph 1020.9mb 48f 43f
8:12pm 2 2 mph 1020.9mb 48f 43f
8:06pm 1 2 mph 1020.9mb 48f 43f
8:00pm  -  1 mph 1020.9mb 48f 44f
7:36pm  -  3 mph 1020.8mb 48f 45f
7:30pm  -  5 mph 1020.8mb 48f 46f
7:24pm  -  3 mph 1020.8mb 48f 46f
7:18pm  -  5 mph 1020.8mb 48f 46f
7:12pm 5 8 mph 1020.8mb 48f 46f
7:06pm 2 7 mph 1020.7mb 48f 46f
7:00pm 5 8 mph 1020.7mb 48f 46f
6:36pm 2 6 mph 1020.7mb 48f 46f
6:30pm 1 5 mph 1020.7mb 48f 46f
6:24pm 2 6 mph 1020.7mb 48f 45f
6:18pm 5 6 mph 1020.8mb 48f 45f
6:12pm 2 6 mph 1020.8mb 48f 45f
6:06pm  -  5 mph 1020.8mb 48f 45f
6:00pm 2 5 mph 1020.8mb 48f 45f
5:36pm 2 3 mph 1020.8mb 48f 45f
5:30pm  -  6 mph 1020.7mb 48f 45f
5:24pm 1 5 mph 1020.8mb 48f 45f
5:18pm  -  2 mph 1020.8mb 48f 45f
5:12pm  -  2 mph 1020.8mb 48f 45f
5:06pm  -  2 mph 1020.8mb 48f 45f
5:00pm 1 3 mph 1020.8mb 48f 46f